sensor_id;sensor_type;location;lat;lon;timestamp;P1;durP1;ratioP1;P2;durP2;ratioP2
58615;SDS011;44385;51.992;4.206;2022-10-16T00:02:03;2.85;;;1.63;;
58615;SDS011;44385;51.992;4.206;2022-10-16T00:04:30;1.63;;;1.33;;
58615;SDS011;44385;51.992;4.206;2022-10-16T00:06:58;3.92;;;1.25;;
58615;SDS011;44385;51.992;4.206;2022-10-16T00:09:25;2.90;;;1.30;;
58615;SDS011;44385;51.992;4.206;2022-10-16T00:11:52;2.50;;;1.20;;
58615;SDS011;44385;51.992;4.206;2022-10-16T00:14:18;2.78;;;1.42;;
58615;SDS011;44385;51.992;4.206;2022-10-16T00:16:45;2.97;;;1.17;;
58615;SDS011;44385;51.992;4.206;2022-10-16T00:19:11;2.45;;;1.23;;
58615;SDS011;44385;51.992;4.206;2022-10-16T00:21:37;4.35;;;1.52;;
58615;SDS011;44385;51.992;4.206;2022-10-16T00:24:06;3.22;;;1.15;;
58615;SDS011;44385;51.992;4.206;2022-10-16T00:26:35;3.88;;;1.30;;
58615;SDS011;44385;51.992;4.206;2022-10-16T00:29:02;6.68;;;1.50;;
58615;SDS011;44385;51.992;4.206;2022-10-16T00:31:29;3.38;;;1.17;;
58615;SDS011;44385;51.992;4.206;2022-10-16T00:33:55;0.93;;;0.80;;
58615;SDS011;44385;51.992;4.206;2022-10-16T00:36:23;2.90;;;1.00;;
58615;SDS011;44385;51.992;4.206;2022-10-16T00:38:50;1.58;;;0.95;;
58615;SDS011;44385;51.992;4.206;2022-10-16T00:41:19;2.35;;;0.90;;
58615;SDS011;44385;51.992;4.206;2022-10-16T00:43:46;2.00;;;0.90;;
58615;SDS011;44385;51.992;4.206;2022-10-16T00:46:14;1.42;;;0.80;;
58615;SDS011;44385;51.992;4.206;2022-10-16T00:48:41;2.00;;;1.10;;
58615;SDS011;44385;51.992;4.206;2022-10-16T00:51:09;4.90;;;1.02;;
58615;SDS011;44385;51.992;4.206;2022-10-16T00:53:36;3.28;;;1.40;;
58615;SDS011;44385;51.992;4.206;2022-10-16T00:56:02;4.65;;;1.05;;
58615;SDS011;44385;51.992;4.206;2022-10-16T00:58:30;2.70;;;1.23;;
58615;SDS011;44385;51.992;4.206;2022-10-16T01:00:58;1.63;;;1.00;;
58615;SDS011;44385;51.992;4.206;2022-10-16T01:03:25;2.58;;;1.52;;
58615;SDS011;44385;51.992;4.206;2022-10-16T01:05:55;3.95;;;1.25;;
58615;SDS011;44385;51.992;4.206;2022-10-16T01:08:27;2.95;;;1.27;;
58615;SDS011;44385;51.992;4.206;2022-10-16T01:10:56;3.97;;;1.77;;
58615;SDS011;44385;51.992;4.206;2022-10-16T01:13:24;2.78;;;1.50;;
58615;SDS011;44385;51.992;4.206;2022-10-16T01:15:54;3.38;;;1.40;;
58615;SDS011;44385;51.992;4.206;2022-10-16T01:18:25;4.10;;;2.00;;
58615;SDS011;44385;51.992;4.206;2022-10-16T01:20:56;2.65;;;1.23;;
58615;SDS011;44385;51.992;4.206;2022-10-16T01:23:34;3.38;;;1.40;;
58615;SDS011;44385;51.992;4.206;2022-10-16T01:26:14;2.05;;;1.10;;
58615;SDS011;44385;51.992;4.206;2022-10-16T01:28:44;7.85;;;1.45;;
58615;SDS011;44385;51.992;4.206;2022-10-16T01:31:13;3.45;;;1.20;;
58615;SDS011;44385;51.992;4.206;2022-10-16T01:33:42;5.38;;;0.90;;
58615;SDS011;44385;51.992;4.206;2022-10-16T01:36:10;3.40;;;1.60;;
58615;SDS011;44385;51.992;4.206;2022-10-16T01:38:38;3.03;;;1.42;;
58615;SDS011;44385;51.992;4.206;2022-10-16T01:41:06;4.50;;;1.02;;
58615;SDS011;44385;51.992;4.206;2022-10-16T01:43:35;2.15;;;1.05;;
58615;SDS011;44385;51.992;4.206;2022-10-16T01:46:04;6.10;;;2.20;;
58615;SDS011;44385;51.992;4.206;2022-10-16T01:48:31;6.15;;;1.35;;
58615;SDS011;44385;51.992;4.206;2022-10-16T01:51:01;1.30;;;1.20;;
58615;SDS011;44385;51.992;4.206;2022-10-16T01:53:28;2.63;;;1.38;;
58615;SDS011;44385;51.992;4.206;2022-10-16T01:55:55;2.22;;;1.30;;
58615;SDS011;44385;51.992;4.206;2022-10-16T01:58:23;2.05;;;1.30;;
58615;SDS011;44385;51.992;4.206;2022-10-16T02:00:50;1.50;;;1.40;;
58615;SDS011;44385;51.992;4.206;2022-10-16T02:03:18;4.80;;;1.70;;
58615;SDS011;44385;51.992;4.206;2022-10-16T02:05:46;1.92;;;1.73;;
58615;SDS011;44385;51.992;4.206;2022-10-16T02:08:12;2.78;;;1.90;;
58615;SDS011;44385;51.992;4.206;2022-10-16T02:10:39;3.92;;;1.83;;
58615;SDS011;44385;51.992;4.206;2022-10-16T02:13:06;3.65;;;2.08;;
58615;SDS011;44385;51.992;4.206;2022-10-16T02:15:34;4.03;;;2.25;;
58615;SDS011;44385;51.992;4.206;2022-10-16T02:18:01;2.90;;;2.00;;
58615;SDS011;44385;51.992;4.206;2022-10-16T02:20:29;3.85;;;1.92;;
58615;SDS011;44385;51.992;4.206;2022-10-16T02:25:25;4.75;;;2.85;;
58615;SDS011;44385;51.992;4.206;2022-10-16T02:27:53;2.92;;;1.88;;
58615;SDS011;44385;51.992;4.206;2022-10-16T02:30:21;3.03;;;1.70;;
58615;SDS011;44385;51.992;4.206;2022-10-16T02:32:49;4.87;;;2.50;;
58615;SDS011;44385;51.992;4.206;2022-10-16T02:35:17;4.43;;;2.08;;
58615;SDS011;44385;51.992;4.206;2022-10-16T02:37:45;6.07;;;1.80;;
58615;SDS011;44385;51.992;4.206;2022-10-16T02:40:12;3.97;;;1.88;;
58615;SDS011;44385;51.992;4.206;2022-10-16T02:42:39;2.40;;;1.80;;
58615;SDS011;44385;51.992;4.206;2022-10-16T02:45:06;3.17;;;1.40;;
58615;SDS011;44385;51.992;4.206;2022-10-16T02:47:33;2.53;;;1.60;;
58615;SDS011;44385;51.992;4.206;2022-10-16T02:49:59;4.10;;;2.05;;
58615;SDS011;44385;51.992;4.206;2022-10-16T02:52:26;2.40;;;1.52;;
58615;SDS011;44385;51.992;4.206;2022-10-16T02:54:54;3.08;;;1.48;;
58615;SDS011;44385;51.992;4.206;2022-10-16T02:57:20;2.58;;;1.70;;
58615;SDS011;44385;51.992;4.206;2022-10-16T02:59:47;4.68;;;1.63;;
58615;SDS011;44385;51.992;4.206;2022-10-16T03:02:13;3.10;;;1.70;;
58615;SDS011;44385;51.992;4.206;2022-10-16T03:04:39;2.38;;;1.50;;
58615;SDS011;44385;51.992;4.206;2022-10-16T03:07:06;2.90;;;1.63;;
58615;SDS011;44385;51.992;4.206;2022-10-16T03:09:32;4.68;;;1.60;;
58615;SDS011;44385;51.992;4.206;2022-10-16T03:12:00;3.30;;;1.20;;
58615;SDS011;44385;51.992;4.206;2022-10-16T03:14:26;6.82;;;1.58;;
58615;SDS011;44385;51.992;4.206;2022-10-16T03:16:53;4.97;;;1.98;;
58615;SDS011;44385;51.992;4.206;2022-10-16T03:19:19;2.17;;;1.60;;
58615;SDS011;44385;51.992;4.206;2022-10-16T03:21:46;2.67;;;1.80;;
58615;SDS011;44385;51.992;4.206;2022-10-16T03:24:12;2.88;;;1.30;;
58615;SDS011;44385;51.992;4.206;2022-10-16T03:26:38;2.58;;;1.23;;
58615;SDS011;44385;51.992;4.206;2022-10-16T03:29:06;6.80;;;1.75;;
58615;SDS011;44385;51.992;4.206;2022-10-16T03:31:32;2.45;;;1.40;;
58615;SDS011;44385;51.992;4.206;2022-10-16T03:33:59;4.60;;;1.63;;
58615;SDS011;44385;51.992;4.206;2022-10-16T03:36:25;3.13;;;1.50;;
58615;SDS011;44385;51.992;4.206;2022-10-16T03:38:54;3.95;;;1.70;;
58615;SDS011;44385;51.992;4.206;2022-10-16T03:41:21;4.82;;;1.63;;
58615;SDS011;44385;51.992;4.206;2022-10-16T03:43:47;3.67;;;1.60;;
58615;SDS011;44385;51.992;4.206;2022-10-16T03:46:15;3.90;;;1.55;;
58615;SDS011;44385;51.992;4.206;2022-10-16T03:48:41;3.40;;;1.27;;
58615;SDS011;44385;51.992;4.206;2022-10-16T03:51:08;3.38;;;1.50;;
58615;SDS011;44385;51.992;4.206;2022-10-16T03:53:34;4.65;;;2.00;;
58615;SDS011;44385;51.992;4.206;2022-10-16T03:56:01;3.45;;;1.35;;
58615;SDS011;44385;51.992;4.206;2022-10-16T03:58:27;3.83;;;1.42;;
58615;SDS011;44385;51.992;4.206;2022-10-16T04:00:54;2.95;;;1.35;;
58615;SDS011;44385;51.992;4.206;2022-10-16T04:03:21;6.50;;;1.80;;
58615;SDS011;44385;51.992;4.206;2022-10-16T04:05:48;3.25;;;1.58;;
58615;SDS011;44385;51.992;4.206;2022-10-16T04:08:14;3.40;;;1.42;;
58615;SDS011;44385;51.992;4.206;2022-10-16T04:10:42;7.07;;;2.22;;
58615;SDS011;44385;51.992;4.206;2022-10-16T04:13:08;3.45;;;1.95;;
58615;SDS011;44385;51.992;4.206;2022-10-16T04:15:35;2.22;;;1.60;;
58615;SDS011;44385;51.992;4.206;2022-10-16T04:18:01;5.07;;;1.70;;
58615;SDS011;44385;51.992;4.206;2022-10-16T04:20:29;2.35;;;1.83;;
58615;SDS011;44385;51.992;4.206;2022-10-16T04:22:56;4.03;;;1.58;;
58615;SDS011;44385;51.992;4.206;2022-10-16T04:25:23;5.03;;;2.10;;
58615;SDS011;44385;51.992;4.206;2022-10-16T04:27:52;2.60;;;1.73;;
58615;SDS011;44385;51.992;4.206;2022-10-16T04:30:18;4.03;;;1.35;;
58615;SDS011;44385;51.992;4.206;2022-10-16T04:32:47;4.55;;;1.80;;
58615;SDS011;44385;51.992;4.206;2022-10-16T04:35:13;4.47;;;1.92;;
58615;SDS011;44385;51.992;4.206;2022-10-16T04:37:41;7.18;;;2.47;;
58615;SDS011;44385;51.992;4.206;2022-10-16T04:40:07;7.93;;;2.00;;
58615;SDS011;44385;51.992;4.206;2022-10-16T04:42:34;3.97;;;1.65;;
58615;SDS011;44385;51.992;4.206;2022-10-16T04:45:00;6.10;;;2.22;;
58615;SDS011;44385;51.992;4.206;2022-10-16T04:47:27;5.05;;;2.40;;
58615;SDS011;44385;51.992;4.206;2022-10-16T04:49:53;4.47;;;2.15;;
58615;SDS011;44385;51.992;4.206;2022-10-16T04:52:20;5.63;;;2.58;;
58615;SDS011;44385;51.992;4.206;2022-10-16T04:54:50;4.85;;;2.40;;
58615;SDS011;44385;51.992;4.206;2022-10-16T04:57:17;5.25;;;2.33;;
58615;SDS011;44385;51.992;4.206;2022-10-16T04:59:43;9.57;;;2.92;;
58615;SDS011;44385;51.992;4.206;2022-10-16T05:02:09;9.20;;;2.53;;
58615;SDS011;44385;51.992;4.206;2022-10-16T05:04:36;7.75;;;2.97;;
58615;SDS011;44385;51.992;4.206;2022-10-16T05:07:02;7.68;;;2.60;;
58615;SDS011;44385;51.992;4.206;2022-10-16T05:09:28;8.98;;;2.45;;
58615;SDS011;44385;51.992;4.206;2022-10-16T05:11:56;5.80;;;2.88;;
58615;SDS011;44385;51.992;4.206;2022-10-16T05:14:23;11.73;;;3.25;;
58615;SDS011;44385;51.992;4.206;2022-10-16T05:16:50;9.70;;;3.15;;
58615;SDS011;44385;51.992;4.206;2022-10-16T05:19:16;7.85;;;3.28;;
58615;SDS011;44385;51.992;4.206;2022-10-16T05:21:43;9.30;;;3.25;;
58615;SDS011;44385;51.992;4.206;2022-10-16T05:24:09;6.75;;;3.00;;
58615;SDS011;44385;51.992;4.206;2022-10-16T05:26:35;8.48;;;2.58;;
58615;SDS011;44385;51.992;4.206;2022-10-16T05:29:03;6.00;;;2.33;;
58615;SDS011;44385;51.992;4.206;2022-10-16T05:31:30;7.55;;;2.58;;
58615;SDS011;44385;51.992;4.206;2022-10-16T05:33:58;5.97;;;3.17;;
58615;SDS011;44385;51.992;4.206;2022-10-16T05:36:24;7.68;;;3.35;;
58615;SDS011;44385;51.992;4.206;2022-10-16T05:38:51;8.05;;;2.88;;
58615;SDS011;44385;51.992;4.206;2022-10-16T05:41:18;5.72;;;2.95;;
58615;SDS011;44385;51.992;4.206;2022-10-16T05:43:46;4.57;;;2.47;;
58615;SDS011;44385;51.992;4.206;2022-10-16T05:46:14;6.90;;;3.05;;
58615;SDS011;44385;51.992;4.206;2022-10-16T05:48:40;6.57;;;2.75;;
58615;SDS011;44385;51.992;4.206;2022-10-16T05:51:08;4.55;;;2.45;;
58615;SDS011;44385;51.992;4.206;2022-10-16T05:53:35;3.67;;;2.25;;
58615;SDS011;44385;51.992;4.206;2022-10-16T05:56:02;6.40;;;2.20;;
58615;SDS011;44385;51.992;4.206;2022-10-16T05:58:29;7.95;;;2.17;;
58615;SDS011;44385;51.992;4.206;2022-10-16T06:00:56;8.52;;;2.30;;
58615;SDS011;44385;51.992;4.206;2022-10-16T06:03:25;6.68;;;2.40;;
58615;SDS011;44385;51.992;4.206;2022-10-16T06:05:51;8.43;;;2.00;;
58615;SDS011;44385;51.992;4.206;2022-10-16T06:08:18;13.57;;;2.60;;
58615;SDS011;44385;51.992;4.206;2022-10-16T06:10:45;6.65;;;1.98;;
58615;SDS011;44385;51.992;4.206;2022-10-16T06:13:11;7.10;;;1.88;;
58615;SDS011;44385;51.992;4.206;2022-10-16T06:15:38;6.70;;;1.85;;
58615;SDS011;44385;51.992;4.206;2022-10-16T06:18:06;7.23;;;2.67;;
58615;SDS011;44385;51.992;4.206;2022-10-16T06:20:34;9.48;;;2.53;;
58615;SDS011;44385;51.992;4.206;2022-10-16T06:23:00;8.07;;;1.98;;
58615;SDS011;44385;51.992;4.206;2022-10-16T06:25:27;5.18;;;1.67;;
58615;SDS011;44385;51.992;4.206;2022-10-16T06:27:54;4.60;;;1.83;;
58615;SDS011;44385;51.992;4.206;2022-10-16T06:30:20;8.63;;;2.40;;
58615;SDS011;44385;51.992;4.206;2022-10-16T06:32:47;8.57;;;2.13;;
58615;SDS011;44385;51.992;4.206;2022-10-16T06:35:13;6.70;;;1.95;;
58615;SDS011;44385;51.992;4.206;2022-10-16T06:37:41;7.10;;;2.20;;
58615;SDS011;44385;51.992;4.206;2022-10-16T06:40:08;8.30;;;2.15;;
58615;SDS011;44385;51.992;4.206;2022-10-16T06:42:34;8.38;;;3.60;;
58615;SDS011;44385;51.992;4.206;2022-10-16T06:45:00;4.35;;;2.15;;
58615;SDS011;44385;51.992;4.206;2022-10-16T06:47:27;4.78;;;2.15;;
58615;SDS011;44385;51.992;4.206;2022-10-16T06:49:53;5.68;;;2.50;;
58615;SDS011;44385;51.992;4.206;2022-10-16T06:52:20;3.80;;;2.30;;
58615;SDS011;44385;51.992;4.206;2022-10-16T06:54:48;6.65;;;2.50;;
58615;SDS011;44385;51.992;4.206;2022-10-16T06:57:15;7.97;;;2.80;;
58615;SDS011;44385;51.992;4.206;2022-10-16T06:59:41;11.02;;;2.85;;
58615;SDS011;44385;51.992;4.206;2022-10-16T07:02:08;7.07;;;2.15;;
58615;SDS011;44385;51.992;4.206;2022-10-16T07:04:35;8.45;;;2.08;;
58615;SDS011;44385;51.992;4.206;2022-10-16T07:07:02;8.20;;;2.60;;
58615;SDS011;44385;51.992;4.206;2022-10-16T07:09:28;7.18;;;2.85;;
58615;SDS011;44385;51.992;4.206;2022-10-16T07:11:56;11.43;;;3.33;;
58615;SDS011;44385;51.992;4.206;2022-10-16T07:14:23;6.97;;;2.92;;
58615;SDS011;44385;51.992;4.206;2022-10-16T07:16:50;5.93;;;2.83;;
58615;SDS011;44385;51.992;4.206;2022-10-16T07:19:16;6.63;;;3.10;;
58615;SDS011;44385;51.992;4.206;2022-10-16T07:21:43;11.63;;;3.60;;
58615;SDS011;44385;51.992;4.206;2022-10-16T07:24:11;10.50;;;3.00;;
58615;SDS011;44385;51.992;4.206;2022-10-16T07:26:37;10.93;;;2.55;;
58615;SDS011;44385;51.992;4.206;2022-10-16T07:29:06;9.48;;;2.75;;
58615;SDS011;44385;51.992;4.206;2022-10-16T07:31:32;7.78;;;2.58;;
58615;SDS011;44385;51.992;4.206;2022-10-16T07:33:59;7.47;;;2.03;;
58615;SDS011;44385;51.992;4.206;2022-10-16T07:36:26;5.72;;;2.42;;
58615;SDS011;44385;51.992;4.206;2022-10-16T07:38:52;4.32;;;2.30;;
58615;SDS011;44385;51.992;4.206;2022-10-16T07:41:19;6.47;;;2.40;;
58615;SDS011;44385;51.992;4.206;2022-10-16T07:43:46;5.93;;;2.50;;
58615;SDS011;44385;51.992;4.206;2022-10-16T07:46:13;7.22;;;2.10;;
58615;SDS011;44385;51.992;4.206;2022-10-16T07:48:42;6.80;;;2.58;;
58615;SDS011;44385;51.992;4.206;2022-10-16T07:51:10;7.78;;;2.78;;
58615;SDS011;44385;51.992;4.206;2022-10-16T07:53:37;8.35;;;2.20;;
58615;SDS011;44385;51.992;4.206;2022-10-16T07:56:04;5.85;;;2.20;;
58615;SDS011;44385;51.992;4.206;2022-10-16T07:58:32;5.55;;;2.15;;
58615;SDS011;44385;51.992;4.206;2022-10-16T08:00:59;6.80;;;2.60;;
58615;SDS011;44385;51.992;4.206;2022-10-16T08:03:30;9.38;;;2.72;;
58615;SDS011;44385;51.992;4.206;2022-10-16T08:05:56;6.88;;;2.53;;
58615;SDS011;44385;51.992;4.206;2022-10-16T08:08:23;7.82;;;2.70;;
58615;SDS011;44385;51.992;4.206;2022-10-16T08:10:50;9.27;;;2.78;;
58615;SDS011;44385;51.992;4.206;2022-10-16T08:13:16;7.45;;;2.08;;
58615;SDS011;44385;51.992;4.206;2022-10-16T08:15:43;8.20;;;2.50;;
58615;SDS011;44385;51.992;4.206;2022-10-16T08:18:10;9.25;;;2.40;;
58615;SDS011;44385;51.992;4.206;2022-10-16T08:20:38;8.68;;;2.88;;
58615;SDS011;44385;51.992;4.206;2022-10-16T08:23:05;9.77;;;2.25;;
58615;SDS011;44385;51.992;4.206;2022-10-16T08:25:33;4.60;;;2.13;;
58615;SDS011;44385;51.992;4.206;2022-10-16T08:28:00;8.98;;;2.92;;
58615;SDS011;44385;51.992;4.206;2022-10-16T08:30:26;9.23;;;2.53;;
58615;SDS011;44385;51.992;4.206;2022-10-16T08:32:53;8.00;;;2.55;;
58615;SDS011;44385;51.992;4.206;2022-10-16T08:35:19;9.02;;;2.75;;
58615;SDS011;44385;51.992;4.206;2022-10-16T08:37:47;8.80;;;2.60;;
58615;SDS011;44385;51.992;4.206;2022-10-16T08:40:16;11.93;;;2.35;;
58615;SDS011;44385;51.992;4.206;2022-10-16T08:42:47;7.45;;;2.25;;
58615;SDS011;44385;51.992;4.206;2022-10-16T08:45:29;8.25;;;2.53;;
58615;SDS011;44385;51.992;4.206;2022-10-16T08:48:00;8.88;;;2.20;;
58615;SDS011;44385;51.992;4.206;2022-10-16T08:50:32;5.95;;;1.95;;
58615;SDS011;44385;51.992;4.206;2022-10-16T08:53:03;7.90;;;1.80;;
58615;SDS011;44385;51.992;4.206;2022-10-16T08:55:30;10.50;;;2.42;;
58615;SDS011;44385;51.992;4.206;2022-10-16T08:57:59;8.10;;;2.73;;
58615;SDS011;44385;51.992;4.206;2022-10-16T09:00:25;12.52;;;2.90;;
58615;SDS011;44385;51.992;4.206;2022-10-16T09:02:53;7.78;;;1.77;;
58615;SDS011;44385;51.992;4.206;2022-10-16T09:05:23;14.65;;;4.10;;
58615;SDS011;44385;51.992;4.206;2022-10-16T09:07:54;9.13;;;2.67;;
58615;SDS011;44385;51.992;4.206;2022-10-16T09:10:29;5.95;;;2.28;;
58615;SDS011;44385;51.992;4.206;2022-10-16T09:13:00;10.00;;;2.28;;
58615;SDS011;44385;51.992;4.206;2022-10-16T09:17:56;12.35;;;2.20;;
58615;SDS011;44385;51.992;4.206;2022-10-16T09:20:30;10.40;;;2.30;;
58615;SDS011;44385;51.992;4.206;2022-10-16T09:23:01;7.28;;;1.77;;
58615;SDS011;44385;51.992;4.206;2022-10-16T09:25:35;7.43;;;1.80;;
58615;SDS011;44385;51.992;4.206;2022-10-16T09:28:02;14.00;;;4.23;;
58615;SDS011;44385;51.992;4.206;2022-10-16T09:30:28;13.20;;;3.00;;
58615;SDS011;44385;51.992;4.206;2022-10-16T09:32:55;10.18;;;2.65;;
58615;SDS011;44385;51.992;4.206;2022-10-16T09:35:27;10.55;;;2.55;;
58615;SDS011;44385;51.992;4.206;2022-10-16T09:38:00;15.55;;;2.58;;
58615;SDS011;44385;51.992;4.206;2022-10-16T09:40:26;8.02;;;1.88;;
58615;SDS011;44385;51.992;4.206;2022-10-16T09:42:57;10.23;;;2.65;;
58615;SDS011;44385;51.992;4.206;2022-10-16T09:45:30;12.80;;;3.20;;
58615;SDS011;44385;51.992;4.206;2022-10-16T09:47:56;17.65;;;3.03;;
58615;SDS011;44385;51.992;4.206;2022-10-16T09:50:24;15.55;;;3.00;;
58615;SDS011;44385;51.992;4.206;2022-10-16T09:53:01;11.30;;;2.60;;
58615;SDS011;44385;51.992;4.206;2022-10-16T09:55:28;10.10;;;3.38;;
58615;SDS011;44385;51.992;4.206;2022-10-16T09:57:56;13.68;;;2.65;;
58615;SDS011;44385;51.992;4.206;2022-10-16T10:00:23;10.02;;;2.40;;
58615;SDS011;44385;51.992;4.206;2022-10-16T10:02:50;11.18;;;2.92;;
58615;SDS011;44385;51.992;4.206;2022-10-16T10:05:18;11.70;;;2.70;;
58615;SDS011;44385;51.992;4.206;2022-10-16T10:07:46;8.98;;;2.58;;
58615;SDS011;44385;51.992;4.206;2022-10-16T10:10:19;8.85;;;2.22;;
58615;SDS011;44385;51.992;4.206;2022-10-16T10:12:46;11.23;;;2.70;;
58615;SDS011;44385;51.992;4.206;2022-10-16T10:15:14;11.10;;;2.22;;
58615;SDS011;44385;51.992;4.206;2022-10-16T10:17:45;9.57;;;2.40;;
58615;SDS011;44385;51.992;4.206;2022-10-16T10:20:15;10.65;;;2.92;;
58615;SDS011;44385;51.992;4.206;2022-10-16T10:22:44;8.75;;;2.17;;
58615;SDS011;44385;51.992;4.206;2022-10-16T10:25:15;10.70;;;2.60;;
58615;SDS011;44385;51.992;4.206;2022-10-16T10:27:51;13.20;;;2.58;;
58615;SDS011;44385;51.992;4.206;2022-10-16T10:30:22;11.43;;;2.22;;
58615;SDS011;44385;51.992;4.206;2022-10-16T10:32:52;13.18;;;2.60;;
58615;SDS011;44385;51.992;4.206;2022-10-16T10:35:22;10.05;;;2.88;;
58615;SDS011;44385;51.992;4.206;2022-10-16T10:37:54;8.13;;;2.42;;
58615;SDS011;44385;51.992;4.206;2022-10-16T10:40:24;9.35;;;2.13;;
58615;SDS011;44385;51.992;4.206;2022-10-16T10:42:55;11.93;;;2.75;;
58615;SDS011;44385;51.992;4.206;2022-10-16T10:45:27;7.80;;;2.55;;
58615;SDS011;44385;51.992;4.206;2022-10-16T10:47:57;7.85;;;2.53;;
58615;SDS011;44385;51.992;4.206;2022-10-16T10:50:26;8.52;;;2.30;;
58615;SDS011;44385;51.992;4.206;2022-10-16T10:52:59;6.45;;;2.30;;
58615;SDS011;44385;51.992;4.206;2022-10-16T10:55:29;12.70;;;2.60;;
58615;SDS011;44385;51.992;4.206;2022-10-16T10:58:10;10.73;;;2.33;;
58615;SDS011;44385;51.992;4.206;2022-10-16T11:00:44;9.80;;;2.42;;
58615;SDS011;44385;51.992;4.206;2022-10-16T11:03:18;9.73;;;2.33;;
58615;SDS011;44385;51.992;4.206;2022-10-16T11:05:47;8.82;;;2.40;;
58615;SDS011;44385;51.992;4.206;2022-10-16T11:08:17;8.88;;;2.42;;
58615;SDS011;44385;51.992;4.206;2022-10-16T11:10:47;6.63;;;2.35;;
58615;SDS011;44385;51.992;4.206;2022-10-16T11:13:19;8.35;;;2.60;;
58615;SDS011;44385;51.992;4.206;2022-10-16T11:15:48;8.80;;;2.83;;
58615;SDS011;44385;51.992;4.206;2022-10-16T11:18:18;6.30;;;2.03;;
58615;SDS011;44385;51.992;4.206;2022-10-16T11:20:46;8.13;;;2.17;;
58615;SDS011;44385;51.992;4.206;2022-10-16T11:23:16;7.53;;;2.00;;
58615;SDS011;44385;51.992;4.206;2022-10-16T11:25:44;9.73;;;2.35;;
58615;SDS011;44385;51.992;4.206;2022-10-16T11:28:12;5.60;;;2.03;;
58615;SDS011;44385;51.992;4.206;2022-10-16T11:30:41;7.05;;;1.77;;
58615;SDS011;44385;51.992;4.206;2022-10-16T11:33:20;6.45;;;1.70;;
58615;SDS011;44385;51.992;4.206;2022-10-16T11:38:15;9.43;;;2.25;;
58615;SDS011;44385;51.992;4.206;2022-10-16T11:40:45;8.20;;;1.98;;
58615;SDS011;44385;51.992;4.206;2022-10-16T11:43:14;10.02;;;1.85;;
58615;SDS011;44385;51.992;4.206;2022-10-16T11:45:44;8.07;;;2.15;;
58615;SDS011;44385;51.992;4.206;2022-10-16T11:48:15;3.63;;;1.23;;
58615;SDS011;44385;51.992;4.206;2022-10-16T11:50:45;11.40;;;2.20;;
58615;SDS011;44385;51.992;4.206;2022-10-16T11:53:16;6.53;;;1.90;;
58615;SDS011;44385;51.992;4.206;2022-10-16T11:55:44;11.40;;;2.67;;
58615;SDS011;44385;51.992;4.206;2022-10-16T11:58:14;14.05;;;2.38;;
58615;SDS011;44385;51.992;4.206;2022-10-16T12:00:44;6.38;;;2.33;;
58615;SDS011;44385;51.992;4.206;2022-10-16T12:03:14;9.13;;;2.05;;
58615;SDS011;44385;51.992;4.206;2022-10-16T12:05:50;8.93;;;2.08;;
58615;SDS011;44385;51.992;4.206;2022-10-16T12:08:18;7.30;;;1.67;;
58615;SDS011;44385;51.992;4.206;2022-10-16T12:10:45;10.25;;;2.20;;
58615;SDS011;44385;51.992;4.206;2022-10-16T12:13:28;8.15;;;2.17;;
58615;SDS011;44385;51.992;4.206;2022-10-16T12:16:03;7.63;;;1.80;;
58615;SDS011;44385;51.992;4.206;2022-10-16T12:18:30;6.38;;;2.47;;
58615;SDS011;44385;51.992;4.206;2022-10-16T12:20:59;8.90;;;2.00;;
58615;SDS011;44385;51.992;4.206;2022-10-16T12:23:31;5.32;;;2.33;;
58615;SDS011;44385;51.992;4.206;2022-10-16T12:25:58;6.72;;;2.10;;
58615;SDS011;44385;51.992;4.206;2022-10-16T12:28:28;9.20;;;2.10;;
58615;SDS011;44385;51.992;4.206;2022-10-16T12:30:55;6.35;;;2.42;;
58615;SDS011;44385;51.992;4.206;2022-10-16T12:33:24;8.88;;;2.22;;
58615;SDS011;44385;51.992;4.206;2022-10-16T12:35:51;5.22;;;1.67;;
58615;SDS011;44385;51.992;4.206;2022-10-16T12:38:20;7.95;;;1.77;;
58615;SDS011;44385;51.992;4.206;2022-10-16T12:40:54;9.27;;;2.63;;
58615;SDS011;44385;51.992;4.206;2022-10-16T12:43:25;9.23;;;2.20;;
58615;SDS011;44385;51.992;4.206;2022-10-16T12:45:59;6.35;;;1.80;;
58615;SDS011;44385;51.992;4.206;2022-10-16T12:48:25;6.93;;;1.90;;
58615;SDS011;44385;51.992;4.206;2022-10-16T12:50:53;6.80;;;1.80;;
58615;SDS011;44385;51.992;4.206;2022-10-16T12:53:22;10.15;;;3.10;;
58615;SDS011;44385;51.992;4.206;2022-10-16T12:55:52;8.55;;;2.80;;
58615;SDS011;44385;51.992;4.206;2022-10-16T13:01:08;5.72;;;2.03;;
58615;SDS011;44385;51.992;4.206;2022-10-16T13:03:40;8.35;;;2.50;;
58615;SDS011;44385;51.992;4.206;2022-10-16T13:06:13;9.50;;;2.55;;
58615;SDS011;44385;51.992;4.206;2022-10-16T13:08:50;6.50;;;2.45;;
58615;SDS011;44385;51.992;4.206;2022-10-16T13:11:22;12.80;;;2.42;;
58615;SDS011;44385;51.992;4.206;2022-10-16T13:13:54;11.55;;;2.45;;
58615;SDS011;44385;51.992;4.206;2022-10-16T13:16:25;15.23;;;2.20;;
58615;SDS011;44385;51.992;4.206;2022-10-16T13:18:58;9.75;;;1.92;;
58615;SDS011;44385;51.992;4.206;2022-10-16T13:21:31;13.18;;;3.08;;
58615;SDS011;44385;51.992;4.206;2022-10-16T13:24:02;9.77;;;2.50;;
58615;SDS011;44385;51.992;4.206;2022-10-16T13:26:34;12.43;;;2.33;;
58615;SDS011;44385;51.992;4.206;2022-10-16T13:29:03;13.02;;;3.28;;
58615;SDS011;44385;51.992;4.206;2022-10-16T13:31:29;11.95;;;2.65;;
58615;SDS011;44385;51.992;4.206;2022-10-16T13:33:56;10.63;;;2.47;;
58615;SDS011;44385;51.992;4.206;2022-10-16T13:36:25;14.68;;;2.78;;
58615;SDS011;44385;51.992;4.206;2022-10-16T13:39:09;8.57;;;3.22;;
58615;SDS011;44385;51.992;4.206;2022-10-16T13:41:36;13.10;;;2.72;;
58615;SDS011;44385;51.992;4.206;2022-10-16T13:44:03;11.75;;;2.70;;
58615;SDS011;44385;51.992;4.206;2022-10-16T13:46:30;14.07;;;2.35;;
58615;SDS011;44385;51.992;4.206;2022-10-16T13:51:25;14.90;;;2.58;;
58615;SDS011;44385;51.992;4.206;2022-10-16T13:53:53;7.30;;;2.03;;
58615;SDS011;44385;51.992;4.206;2022-10-16T13:56:22;12.70;;;2.65;;
58615;SDS011;44385;51.992;4.206;2022-10-16T13:58:58;8.45;;;2.70;;
58615;SDS011;44385;51.992;4.206;2022-10-16T14:01:26;7.88;;;1.92;;
58615;SDS011;44385;51.992;4.206;2022-10-16T14:03:59;18.47;;;3.73;;
58615;SDS011;44385;51.992;4.206;2022-10-16T14:06:26;11.13;;;2.88;;
58615;SDS011;44385;51.992;4.206;2022-10-16T14:08:54;11.10;;;3.20;;
58615;SDS011;44385;51.992;4.206;2022-10-16T14:11:24;14.95;;;2.83;;
58615;SDS011;44385;51.992;4.206;2022-10-16T14:13:51;12.10;;;2.97;;
58615;SDS011;44385;51.992;4.206;2022-10-16T14:16:18;10.10;;;2.33;;
58615;SDS011;44385;51.992;4.206;2022-10-16T14:18:45;12.38;;;2.58;;
58615;SDS011;44385;51.992;4.206;2022-10-16T14:21:12;12.02;;;2.60;;
58615;SDS011;44385;51.992;4.206;2022-10-16T14:23:40;11.20;;;2.45;;
58615;SDS011;44385;51.992;4.206;2022-10-16T14:26:14;11.98;;;2.50;;
58615;SDS011;44385;51.992;4.206;2022-10-16T14:28:43;15.07;;;3.15;;
58615;SDS011;44385;51.992;4.206;2022-10-16T14:31:26;13.18;;;2.60;;
58615;SDS011;44385;51.992;4.206;2022-10-16T14:33:54;14.50;;;3.42;;
58615;SDS011;44385;51.992;4.206;2022-10-16T14:36:20;9.30;;;1.90;;
58615;SDS011;44385;51.992;4.206;2022-10-16T14:38:48;14.05;;;2.97;;
58615;SDS011;44385;51.992;4.206;2022-10-16T14:41:15;11.25;;;2.40;;
58615;SDS011;44385;51.992;4.206;2022-10-16T14:43:43;11.10;;;2.28;;
58615;SDS011;44385;51.992;4.206;2022-10-16T14:46:11;10.55;;;2.25;;
58615;SDS011;44385;51.992;4.206;2022-10-16T14:48:39;11.57;;;2.85;;
58615;SDS011;44385;51.992;4.206;2022-10-16T14:51:08;12.90;;;2.78;;
58615;SDS011;44385;51.992;4.206;2022-10-16T14:53:34;10.57;;;3.13;;
58615;SDS011;44385;51.992;4.206;2022-10-16T14:56:05;11.73;;;2.50;;
58615;SDS011;44385;51.992;4.206;2022-10-16T14:58:32;11.32;;;2.55;;
58615;SDS011;44385;51.992;4.206;2022-10-16T15:01:00;14.55;;;2.88;;
58615;SDS011;44385;51.992;4.206;2022-10-16T15:03:26;12.63;;;2.78;;
58615;SDS011;44385;51.992;4.206;2022-10-16T15:05:53;12.75;;;2.63;;